Greenville Airport (GRE)
Greenville, IL
Field Elevation: 540
Lat: 38°50.00N  Long: 89°22.00W
CTAF/Unicom Freq: 123.0500
   
     For Weather-by-Phone, call (618) 664-1939
Weather Advisories
2024-04-19   09:14 Z
Altimeter 30.12" Hg
Wind 330° @ 12 KT
Gusts 17 KT
Visibility 10 SM
Temperature 9° C (48° F)
Dewpoint 9° C (48° F)
Relative Humidity 95%
Density Altitude --
Condensation Altitude 800 feet
Wind Chill: 6° C (43° F)
Wind and Runways
Indicated Runway = 36
Headwind = 10 kt
Crosswind = 6 kt
History
 
 
 
More Info
 
NOAA Forecast
 
Airport IQ 5010
(FLV) Sherman Airfield
(VLA) Vandalia
 
about Belfort Instrument
 
FAA Disclaimer: The data displayed is for advisory purposes only and is not to be used for flight planning or operations. For official data, please call (618) 664-1939 to hear the current automated AWOS voice message.
  METAR GRE 190914Z AUTO 33012G17KT 10 SM 09/09 A3012